Monday, January 22, 2018, 8:59 AM EST
Back to Local

KHYA, Hyannis Barnstable Boardmn

Location: West Yarmouth, MA, United States Lat: 41.667
Local Time: 8:59 AM EST (13:59 GMT) Lon: -70.267
Time Zone: US/Eastern Elev: 52 ft

Show me the last for .
Show Decoded

2018-01-22 08:27 METAR KHYA 221327Z 00000KT 4SM BR BKN027 OVC035 03/02 A3024 RMK AO2 T00280017 =
2018-01-22 07:56 METAR KHYA 221256Z 00000KT 4SM BR OVC034 03/02 A3023 RMK AO2 RAE40 SLP238 P0000
                 T00280017 =
2018-01-22 06:56 METAR KHYA 221156Z 00000KT 5SM -RA BR OVC031 02/01 A3021 RMK AO2 SLP233 P0000
                 60000 T00170006 10017 21033 51008 $ =
2018-01-22 05:56 METAR KHYA 221056Z 00000KT 7SM -RA OVC038 01/00 A3021 RMK AO2 RAB06 SLP231 P0000
                 T00110000 $ =
2018-01-22 04:56 METAR KHYA 220956Z AUTO 00000KT 8SM OVC043 01/00 A3021 RMK AO2 SLP229 T00110000
                 $ =
2018-01-22 03:56 METAR KHYA 220856Z AUTO 00000KT 8SM OVC047 00/M01 A3019 RMK AO2 UPB39E48 SLP223
                 P0000 60000 T00001011 58002 $ =
2018-01-22 02:56 METAR KHYA 220756Z AUTO 00000KT 8SM OVC050 M01/M02 A3019 RMK AO2 SLP225
                 T10111022 $ =
2018-01-22 01:56 METAR KHYA 220656Z AUTO 00000KT 7SM FEW060 SCT080 M03/M04 A3019 RMK AO2 SLP224
                 T10281039 $ =
2018-01-22 00:56 METAR KHYA 220556Z AUTO 00000KT 8SM CLR M03/M05 A3019 RMK AO2 SLP225 T10331050
                 11006 21033 58002 $ =
2018-01-21 23:56 METAR KHYA 220456Z AUTO 00000KT 8SM CLR M03/M05 A3020 RMK AO2 SLP229 T10331050
                 400941033 $ =
2018-01-21 22:56 METAR KHYA 220356Z AUTO 00000KT 9SM CLR M03/M04 A3020 RMK AO2 SLP226 T10281044 $
                 =
2018-01-21 21:56 METAR KHYA 220256Z 00000KT 9SM CLR M03/M05 A3020 RMK AO2 SLP226 T10281050 51008
                 $ =
2018-01-21 20:56 METAR KHYA 220156Z 00000KT 10SM CLR M02/M04 A3019 RMK AO2 SLP225 T10221044 $ =
2018-01-21 19:56 METAR KHYA 220056Z 00000KT 10SM CLR M02/M04 A3019 RMK AO2 SLP223 T10171039 $ =
2018-01-21 18:56 METAR KHYA 212356Z 00000KT 10SM CLR M01/M04 A3017 RMK AO2 SLP220 T10061039 10094
                 21006 51017 $ =
2018-01-21 17:56 METAR KHYA 212256Z 00000KT 10SM CLR 00/M03 A3016 RMK AO2 SLP214 T00001033 $ =
2018-01-21 16:56 METAR KHYA 212156Z 00000KT 10SM CLR 04/M02 A3014 RMK AO2 SLP209 T00391022 $ =
2018-01-21 15:56 METAR KHYA 212056Z 01004KT 10SM CLR 07/M02 A3012 RMK AO2 SLP201 T00721017 53010
                 $ =
2018-01-21 14:56 METAR KHYA 211956Z 35008KT 10SM CLR 08/M02 A3011 RMK AO2 SLP196 T00831017 $ =
2018-01-21 13:56 METAR KHYA 211856Z 34008KT 10SM CLR 09/M02 A3010 RMK AO2 SLP194 T00891017 $ =
2018-01-21 12:56 METAR KHYA 211756Z 34006KT 10SM CLR 09/M01 A3009 RMK AO2 SLP191 T00891011 10094
                 21028 56013 $ =
2018-01-21 11:56 METAR KHYA 211656Z 32009KT 10SM CLR 09/M01 A3010 RMK AO2 SLP195 T00891011 $ =
2018-01-21 10:56 METAR KHYA 211556Z 33009KT 10SM CLR 09/M01 A3012 RMK AO2 SLP200 T00891006 $ =
2018-01-21 09:56 METAR KHYA 211456Z 32008KT 10SM CLR 08/M01 A3013 RMK AO2 SLP204 T00781006 53019
                 $ =

Support USWX by starting your Amazon purchase here.